sensor_id;sensor_type;location;lat;lon;timestamp;pressure;altitude;pressure_sealevel;temperature;humidity
23170;BME280;11753;43.144;24.714;2022-12-10T00:00:08;98857.06;;;5.94;100.00
23170;BME280;11753;43.144;24.714;2022-12-10T00:01:18;98860.31;;;6.05;100.00
23170;BME280;11753;43.144;24.714;2022-12-10T00:02:19;98852.78;;;6.02;100.00
23170;BME280;11753;43.144;24.714;2022-12-10T00:03:20;98857.75;;;5.96;100.00
23170;BME280;11753;43.144;24.714;2022-12-10T00:04:21;98854.47;;;5.94;100.00
23170;BME280;11753;43.144;24.714;2022-12-10T00:05:21;98850.72;;;5.96;100.00
23170;BME280;11753;43.144;24.714;2022-12-10T00:06:22;98847.41;;;6.04;100.00
23170;BME280;11753;43.144;24.714;2022-12-10T00:07:23;98854.00;;;6.08;100.00
23170;BME280;11753;43.144;24.714;2022-12-10T00:08:23;98856.16;;;6.13;100.00
23170;BME280;11753;43.144;24.714;2022-12-10T00:09:24;98857.53;;;6.17;100.00
23170;BME280;11753;43.144;24.714;2022-12-10T00:10:24;98862.78;;;6.17;100.00
23170;BME280;11753;43.144;24.714;2022-12-10T00:11:24;98868.00;;;6.17;100.00
23170;BME280;11753;43.144;24.714;2022-12-10T00:12:25;98860.25;;;6.25;100.00
23170;BME280;11753;43.144;24.714;2022-12-10T00:13:25;98864.38;;;6.27;100.00
23170;BME280;11753;43.144;24.714;2022-12-10T00:14:26;98864.91;;;6.31;100.00
23170;BME280;11753;43.144;24.714;2022-12-10T00:15:26;98871.78;;;6.32;100.00
23170;BME280;11753;43.144;24.714;2022-12-10T00:16:27;98859.94;;;6.38;100.00
23170;BME280;11753;43.144;24.714;2022-12-10T00:17:28;98872.84;;;6.39;100.00
23170;BME280;11753;43.144;24.714;2022-12-10T00:18:28;98868.69;;;6.46;100.00
23170;BME280;11753;43.144;24.714;2022-12-10T00:19:30;98866.75;;;6.48;100.00
23170;BME280;11753;43.144;24.714;2022-12-10T00:20:31;98861.53;;;6.48;100.00
23170;BME280;11753;43.144;24.714;2022-12-10T00:21:32;98869.09;;;6.51;100.00
23170;BME280;11753;43.144;24.714;2022-12-10T00:22:33;98863.72;;;6.53;100.00
23170;BME280;11753;43.144;24.714;2022-12-10T00:23:34;98864.94;;;6.58;100.00
23170;BME280;11753;43.144;24.714;2022-12-10T00:24:35;98865.59;;;6.60;100.00
23170;BME280;11753;43.144;24.714;2022-12-10T00:25:36;98868.88;;;6.62;100.00
23170;BME280;11753;43.144;24.714;2022-12-10T00:26:37;98860.59;;;6.67;100.00
23170;BME280;11753;43.144;24.714;2022-12-10T00:27:37;98867.78;;;6.65;100.00
23170;BME280;11753;43.144;24.714;2022-12-10T00:28:38;98859.47;;;6.70;100.00
23170;BME280;11753;43.144;24.714;2022-12-10T00:29:38;98863.06;;;6.69;100.00
23170;BME280;11753;43.144;24.714;2022-12-10T00:30:39;98861.13;;;6.71;100.00
23170;BME280;11753;43.144;24.714;2022-12-10T00:31:39;98873.13;;;6.63;100.00
23170;BME280;11753;43.144;24.714;2022-12-10T00:32:40;98868.63;;;6.56;100.00
23170;BME280;11753;43.144;24.714;2022-12-10T00:33:41;98868.22;;;6.60;100.00
23170;BME280;11753;43.144;24.714;2022-12-10T00:34:41;98861.59;;;6.56;100.00
23170;BME280;11753;43.144;24.714;2022-12-10T00:35:41;98859.38;;;6.61;100.00
23170;BME280;11753;43.144;24.714;2022-12-10T00:36:43;98855.38;;;6.67;100.00
23170;BME280;11753;43.144;24.714;2022-12-10T00:37:44;98859.94;;;6.65;100.00
23170;BME280;11753;43.144;24.714;2022-12-10T00:38:45;98858.13;;;6.66;100.00
23170;BME280;11753;43.144;24.714;2022-12-10T00:39:46;98856.44;;;6.74;100.00
23170;BME280;11753;43.144;24.714;2022-12-10T00:40:47;98844.84;;;6.77;100.00
23170;BME280;11753;43.144;24.714;2022-12-10T00:41:48;98850.06;;;6.77;100.00
23170;BME280;11753;43.144;24.714;2022-12-10T00:42:49;98859.19;;;6.73;100.00
23170;BME280;11753;43.144;24.714;2022-12-10T00:43:50;98849.47;;;6.65;100.00
23170;BME280;11753;43.144;24.714;2022-12-10T00:44:50;98848.53;;;6.56;100.00
23170;BME280;11753;43.144;24.714;2022-12-10T00:45:52;98847.59;;;6.57;100.00
23170;BME280;11753;43.144;24.714;2022-12-10T00:46:53;98842.47;;;6.56;100.00
23170;BME280;11753;43.144;24.714;2022-12-10T00:47:53;98850.28;;;6.66;100.00
23170;BME280;11753;43.144;24.714;2022-12-10T00:48:54;98860.44;;;6.41;100.00
23170;BME280;11753;43.144;24.714;2022-12-10T00:49:54;98865.97;;;6.38;100.00
23170;BME280;11753;43.144;24.714;2022-12-10T00:50:58;98865.53;;;6.43;100.00
23170;BME280;11753;43.144;24.714;2022-12-10T00:51:59;98861.53;;;6.48;100.00
23170;BME280;11753;43.144;24.714;2022-12-10T00:53:00;98844.97;;;6.57;100.00
23170;BME280;11753;43.144;24.714;2022-12-10T00:54:01;98847.94;;;6.62;100.00
23170;BME280;11753;43.144;24.714;2022-12-10T00:55:02;98843.25;;;6.66;100.00
23170;BME280;11753;43.144;24.714;2022-12-10T00:56:04;98840.44;;;6.77;100.00
23170;BME280;11753;43.144;24.714;2022-12-10T00:57:04;98849.09;;;6.78;100.00
23170;BME280;11753;43.144;24.714;2022-12-10T00:58:05;98853.00;;;6.74;100.00
23170;BME280;11753;43.144;24.714;2022-12-10T00:59:06;98855.88;;;6.71;100.00
23170;BME280;11753;43.144;24.714;2022-12-10T01:00:07;98855.53;;;6.66;100.00
23170;BME280;11753;43.144;24.714;2022-12-10T01:01:09;98845.16;;;6.74;100.00
23170;BME280;11753;43.144;24.714;2022-12-10T01:02:10;98839.69;;;6.67;100.00
23170;BME280;11753;43.144;24.714;2022-12-10T01:03:11;98841.88;;;6.72;100.00
23170;BME280;11753;43.144;24.714;2022-12-10T01:04:13;98846.78;;;6.75;100.00
23170;BME280;11753;43.144;24.714;2022-12-10T01:05:14;98845.16;;;6.74;100.00
23170;BME280;11753;43.144;24.714;2022-12-10T01:06:22;98845.53;;;6.79;100.00
23170;BME280;11753;43.144;24.714;2022-12-10T01:07:23;98842.06;;;6.78;100.00
23170;BME280;11753;43.144;24.714;2022-12-10T01:08:23;98837.69;;;6.79;100.00
23170;BME280;11753;43.144;24.714;2022-12-10T01:09:25;98855.53;;;6.83;100.00
23170;BME280;11753;43.144;24.714;2022-12-10T01:10:27;98847.75;;;6.74;100.00
23170;BME280;11753;43.144;24.714;2022-12-10T01:11:31;98848.84;;;6.71;100.00
23170;BME280;11753;43.144;24.714;2022-12-10T01:12:32;98850.22;;;6.57;100.00
23170;BME280;11753;43.144;24.714;2022-12-10T01:13:32;98851.84;;;6.58;100.00
23170;BME280;11753;43.144;24.714;2022-12-10T01:14:33;98861.25;;;6.51;100.00
23170;BME280;11753;43.144;24.714;2022-12-10T01:15:36;98863.16;;;6.49;100.00
23170;BME280;11753;43.144;24.714;2022-12-10T01:16:38;98857.34;;;6.55;100.00
23170;BME280;11753;43.144;24.714;2022-12-10T01:17:39;98859.53;;;6.60;100.00
23170;BME280;11753;43.144;24.714;2022-12-10T01:18:40;98845.50;;;6.61;100.00
23170;BME280;11753;43.144;24.714;2022-12-10T01:19:41;98847.69;;;6.66;100.00
23170;BME280;11753;43.144;24.714;2022-12-10T01:20:42;98845.06;;;6.66;100.00
23170;BME280;11753;43.144;24.714;2022-12-10T01:21:42;98849.09;;;6.60;100.00
23170;BME280;11753;43.144;24.714;2022-12-10T01:22:43;98852.09;;;6.65;100.00
23170;BME280;11753;43.144;24.714;2022-12-10T01:23:45;98844.81;;;6.59;100.00
23170;BME280;11753;43.144;24.714;2022-12-10T01:24:46;98852.75;;;6.67;100.00
23170;BME280;11753;43.144;24.714;2022-12-10T01:25:47;98847.38;;;6.69;100.00
23170;BME280;11753;43.144;24.714;2022-12-10T01:26:48;98842.81;;;6.71;100.00
23170;BME280;11753;43.144;24.714;2022-12-10T01:27:49;98840.19;;;6.71;100.00
23170;BME280;11753;43.144;24.714;2022-12-10T01:28:50;98836.09;;;6.68;100.00
23170;BME280;11753;43.144;24.714;2022-12-10T01:29:51;98834.06;;;6.62;100.00
23170;BME280;11753;43.144;24.714;2022-12-10T01:30:52;98835.56;;;6.65;100.00
23170;BME280;11753;43.144;24.714;2022-12-10T01:31:53;98837.72;;;6.69;100.00
23170;BME280;11753;43.144;24.714;2022-12-10T01:32:55;98837.97;;;6.76;100.00
23170;BME280;11753;43.144;24.714;2022-12-10T01:33:56;98835.72;;;6.81;100.00
23170;BME280;11753;43.144;24.714;2022-12-10T01:34:58;98826.59;;;6.85;100.00
23170;BME280;11753;43.144;24.714;2022-12-10T01:36:03;98824.81;;;6.85;100.00
23170;BME280;11753;43.144;24.714;2022-12-10T01:37:04;98831.25;;;6.91;100.00
23170;BME280;11753;43.144;24.714;2022-12-10T01:38:04;98824.91;;;6.94;100.00
23170;BME280;11753;43.144;24.714;2022-12-10T01:39:06;98826.72;;;6.93;100.00
23170;BME280;11753;43.144;24.714;2022-12-10T01:40:07;98829.31;;;6.93;100.00
23170;BME280;11753;43.144;24.714;2022-12-10T01:41:10;98832.75;;;6.94;100.00
23170;BME280;11753;43.144;24.714;2022-12-10T01:42:13;98833.44;;;6.96;100.00
23170;BME280;11753;43.144;24.714;2022-12-10T01:43:14;98827.88;;;6.99;100.00
23170;BME280;11753;43.144;24.714;2022-12-10T01:45:17;98824.44;;;6.98;100.00
23170;BME280;11753;43.144;24.714;2022-12-10T01:46:18;98824.91;;;6.94;100.00
23170;BME280;11753;43.144;24.714;2022-12-10T01:47:19;98824.09;;;6.93;100.00
23170;BME280;11753;43.144;24.714;2022-12-10T01:48:20;98821.47;;;6.93;100.00
23170;BME280;11753;43.144;24.714;2022-12-10T01:49:31;98821.09;;;6.88;100.00
23170;BME280;11753;43.144;24.714;2022-12-10T01:50:33;98818.84;;;6.93;100.00
23170;BME280;11753;43.144;24.714;2022-12-10T01:51:34;98820.19;;;6.97;100.00
23170;BME280;11753;43.144;24.714;2022-12-10T01:52:35;98819.06;;;7.00;100.00
23170;BME280;11753;43.144;24.714;2022-12-10T01:53:37;98814.66;;;7.00;100.00
23170;BME280;11753;43.144;24.714;2022-12-10T01:54:39;98817.94;;;7.02;100.00
23170;BME280;11753;43.144;24.714;2022-12-10T01:55:41;98811.59;;;6.87;100.00
23170;BME280;11753;43.144;24.714;2022-12-10T01:56:43;98823.16;;;6.84;100.00
23170;BME280;11753;43.144;24.714;2022-12-10T01:57:44;98821.38;;;6.85;100.00
23170;BME280;11753;43.144;24.714;2022-12-10T01:58:45;98824.13;;;6.83;100.00
23170;BME280;11753;43.144;24.714;2022-12-10T01:59:48;98837.75;;;6.87;100.00
23170;BME280;11753;43.144;24.714;2022-12-10T02:00:52;98831.56;;;6.88;100.00
23170;BME280;11753;43.144;24.714;2022-12-10T02:02:59;98825.13;;;6.82;100.00
23170;BME280;11753;43.144;24.714;2022-12-10T02:08:52;98823.03;;;6.86;100.00
23170;BME280;11753;43.144;24.714;2022-12-10T02:10:08;98815.19;;;6.86;100.00
23170;BME280;11753;43.144;24.714;2022-12-10T02:11:20;98812.56;;;6.86;100.00
23170;BME280;11753;43.144;24.714;2022-12-10T02:12:24;98813.91;;;6.90;100.00
23170;BME280;11753;43.144;24.714;2022-12-10T02:13:31;98821.09;;;6.88;100.00
23170;BME280;11753;43.144;24.714;2022-12-10T02:16:10;98812.94;;;6.91;100.00
23170;BME280;11753;43.144;24.714;2022-12-10T02:17:17;98812.34;;;6.97;100.00
23170;BME280;11753;43.144;24.714;2022-12-10T02:18:20;98816.66;;;7.06;100.00
23170;BME280;11753;43.144;24.714;2022-12-10T02:19:30;98811.44;;;6.88;100.00
23170;BME280;11753;43.144;24.714;2022-12-10T02:21:40;98810.16;;;6.75;100.00
23170;BME280;11753;43.144;24.714;2022-12-10T02:22:49;98805.00;;;6.83;100.00
23170;BME280;11753;43.144;24.714;2022-12-10T02:23:52;98799.69;;;6.75;100.00
23170;BME280;11753;43.144;24.714;2022-12-10T02:24:55;98797.25;;;6.73;100.00
23170;BME280;11753;43.144;24.714;2022-12-10T02:26:02;98794.09;;;6.70;100.00
23170;BME280;11753;43.144;24.714;2022-12-10T02:27:16;98795.72;;;6.71;100.00
23170;BME280;11753;43.144;24.714;2022-12-10T02:29:27;98797.47;;;6.80;100.00
23170;BME280;11753;43.144;24.714;2022-12-10T02:30:29;98792.16;;;6.89;100.00
23170;BME280;11753;43.144;24.714;2022-12-10T02:31:31;98797.63;;;6.96;100.00
23170;BME280;11753;43.144;24.714;2022-12-10T02:32:36;98792.38;;;6.96;100.00
23170;BME280;11753;43.144;24.714;2022-12-10T02:33:38;98792.59;;;6.85;100.00
23170;BME280;11753;43.144;24.714;2022-12-10T02:34:42;98794.69;;;6.81;100.00
23170;BME280;11753;43.144;24.714;2022-12-10T02:35:43;98792.75;;;6.83;100.00
23170;BME280;11753;43.144;24.714;2022-12-10T02:36:47;98797.25;;;6.73;100.00
23170;BME280;11753;43.144;24.714;2022-12-10T02:37:55;98797.09;;;6.75;100.00
23170;BME280;11753;43.144;24.714;2022-12-10T02:38:57;98792.22;;;6.62;100.00
23170;BME280;11753;43.144;24.714;2022-12-10T02:40:02;98804.13;;;6.74;100.00
23170;BME280;11753;43.144;24.714;2022-12-10T02:41:06;98794.47;;;6.75;100.00
23170;BME280;11753;43.144;24.714;2022-12-10T02:42:08;98797.53;;;6.88;100.00
23170;BME280;11753;43.144;24.714;2022-12-10T02:43:12;98800.66;;;6.92;100.00
23170;BME280;11753;43.144;24.714;2022-12-10T02:44:15;98803.75;;;6.87;100.00
23170;BME280;11753;43.144;24.714;2022-12-10T02:45:18;98806.66;;;6.84;100.00
23170;BME280;11753;43.144;24.714;2022-12-10T02:46:21;98798.22;;;6.90;100.00
23170;BME280;11753;43.144;24.714;2022-12-10T02:47:23;98804.50;;;6.97;100.00
23170;BME280;11753;43.144;24.714;2022-12-10T02:48:24;98797.31;;;6.99;100.00
23170;BME280;11753;43.144;24.714;2022-12-10T02:49:25;98797.03;;;7.02;100.00
23170;BME280;11753;43.144;24.714;2022-12-10T02:50:27;98791.78;;;7.02;100.00
23170;BME280;11753;43.144;24.714;2022-12-10T02:51:28;98794.69;;;6.99;100.00
23170;BME280;11753;43.144;24.714;2022-12-10T02:52:28;98788.19;;;7.03;100.00
23170;BME280;11753;43.144;24.714;2022-12-10T02:53:29;98788.50;;;7.00;100.00
23170;BME280;11753;43.144;24.714;2022-12-10T02:55:51;98791.78;;;7.02;100.00
23170;BME280;11753;43.144;24.714;2022-12-10T02:56:54;98785.56;;;7.03;100.00
23170;BME280;11753;43.144;24.714;2022-12-10T03:00:20;98787.75;;;7.08;100.00
23170;BME280;11753;43.144;24.714;2022-12-10T03:03:50;98781.06;;;7.13;100.00
23170;BME280;11753;43.144;24.714;2022-12-10T03:05:04;98784.22;;;7.17;100.00
23170;BME280;11753;43.144;24.714;2022-12-10T03:06:10;98772.97;;;7.25;100.00
23170;BME280;11753;43.144;24.714;2022-12-10T03:07:16;98770.88;;;7.28;100.00
23170;BME280;11753;43.144;24.714;2022-12-10T03:09:53;98777.63;;;7.31;100.00
23170;BME280;11753;43.144;24.714;2022-12-10T03:11:47;98786.44;;;7.30;100.00
23170;BME280;11753;43.144;24.714;2022-12-10T03:12:51;98778.28;;;7.33;100.00
23170;BME280;11753;43.144;24.714;2022-12-10T03:15:30;98782.09;;;7.21;100.00
23170;BME280;11753;43.144;24.714;2022-12-10T03:16:36;98780.31;;;7.21;100.00
23170;BME280;11753;43.144;24.714;2022-12-10T03:17:38;98785.03;;;7.17;100.00
23170;BME280;11753;43.144;24.714;2022-12-10T03:18:39;98781.75;;;7.15;100.00
23170;BME280;11753;43.144;24.714;2022-12-10T03:19:41;98786.69;;;7.18;100.00
23170;BME280;11753;43.144;24.714;2022-12-10T03:20:43;98794.16;;;7.13;100.00
23170;BME280;11753;43.144;24.714;2022-12-10T03:21:45;98787.28;;;7.12;100.00
23170;BME280;11753;43.144;24.714;2022-12-10T03:22:48;98794.84;;;7.15;100.00
23170;BME280;11753;43.144;24.714;2022-12-10T03:23:49;98792.50;;;7.12;100.00
23170;BME280;11753;43.144;24.714;2022-12-10T03:24:50;98802.38;;;7.18;100.00
23170;BME280;11753;43.144;24.714;2022-12-10T03:25:52;98793.88;;;7.16;100.00
23170;BME280;11753;43.144;24.714;2022-12-10T03:26:53;98788.63;;;7.16;100.00
23170;BME280;11753;43.144;24.714;2022-12-10T03:27:54;98787.72;;;7.26;100.00
23170;BME280;11753;43.144;24.714;2022-12-10T03:28:58;98790.50;;;7.24;100.00
23170;BME280;11753;43.144;24.714;2022-12-10T03:30:02;98798.50;;;7.23;100.00
23170;BME280;11753;43.144;24.714;2022-12-10T03:31:03;98798.19;;;7.26;100.00
23170;BME280;11753;43.144;24.714;2022-12-10T03:32:05;98799.81;;;7.27;100.00
23170;BME280;11753;43.144;24.714;2022-12-10T03:33:06;98798.34;;;7.24;100.00
23170;BME280;11753;43.144;24.714;2022-12-10T03:34:08;98793.97;;;7.33;100.00
23170;BME280;11753;43.144;24.714;2022-12-10T03:35:10;98796.59;;;7.33;100.00
23170;BME280;11753;43.144;24.714;2022-12-10T03:36:11;98785.16;;;7.34;100.00
23170;BME280;11753;43.144;24.714;2022-12-10T03:37:13;98788.75;;;7.33;100.00
23170;BME280;11753;43.144;24.714;2022-12-10T03:38:14;98791.53;;;7.31;100.00
23170;BME280;11753;43.144;24.714;2022-12-10T03:39:15;98783.50;;;7.33;100.00
23170;BME280;11753;43.144;24.714;2022-12-10T03:40:17;98775.06;;;7.39;100.00
23170;BME280;11753;43.144;24.714;2022-12-10T03:41:18;98779.03;;;7.43;100.00
23170;BME280;11753;43.144;24.714;2022-12-10T03:42:19;98776.53;;;7.41;100.00
23170;BME280;11753;43.144;24.714;2022-12-10T03:43:21;98776.53;;;7.41;100.00
23170;BME280;11753;43.144;24.714;2022-12-10T03:44:31;98778.03;;;7.44;100.00
23170;BME280;11753;43.144;24.714;2022-12-10T03:45:33;98781.34;;;7.28;100.00
23170;BME280;11753;43.144;24.714;2022-12-10T03:46:33;98787.09;;;7.32;100.00
23170;BME280;11753;43.144;24.714;2022-12-10T03:47:34;98787.47;;;7.37;100.00
23170;BME280;11753;43.144;24.714;2022-12-10T03:48:35;98791.06;;;7.36;100.00
23170;BME280;11753;43.144;24.714;2022-12-10T03:49:36;98790.88;;;7.29;100.00
23170;BME280;11753;43.144;24.714;2022-12-10T03:50:37;98787.88;;;7.06;100.00
23170;BME280;11753;43.144;24.714;2022-12-10T03:51:37;98791.84;;;7.10;100.00
23170;BME280;11753;43.144;24.714;2022-12-10T03:52:38;98797.91;;;7.11;100.00
23170;BME280;11753;43.144;24.714;2022-12-10T03:53:39;98796.19;;;7.02;100.00
23170;BME280;11753;43.144;24.714;2022-12-10T03:54:40;98796.41;;;7.08;100.00
23170;BME280;11753;43.144;24.714;2022-12-10T03:55:41;98788.28;;;6.94;100.00
23170;BME280;11753;43.144;24.714;2022-12-10T03:56:41;98789.16;;;7.02;100.00
23170;BME280;11753;43.144;24.714;2022-12-10T03:57:42;98791.25;;;6.99;100.00
23170;BME280;11753;43.144;24.714;2022-12-10T03:58:43;98799.91;;;6.99;100.00
23170;BME280;11753;43.144;24.714;2022-12-10T03:59:44;98793.81;;;7.08;100.00
23170;BME280;11753;43.144;24.714;2022-12-10T04:00:44;98791.78;;;6.84;100.00
23170;BME280;11753;43.144;24.714;2022-12-10T04:01:45;98787.09;;;6.88;100.00
23170;BME280;11753;43.144;24.714;2022-12-10T04:02:46;98791.34;;;6.89;100.00
23170;BME280;11753;43.144;24.714;2022-12-10T04:03:47;98795.59;;;6.90;100.00
23170;BME280;11753;43.144;24.714;2022-12-10T04:04:48;98801.81;;;6.89;100.00
23170;BME280;11753;43.144;24.714;2022-12-10T04:05:48;98791.66;;;6.86;100.00
23170;BME280;11753;43.144;24.714;2022-12-10T04:06:49;98793.94;;;6.89;100.00
23170;BME280;11753;43.144;24.714;2022-12-10T04:07:50;98793.50;;;6.94;100.00
23170;BME280;11753;43.144;24.714;2022-12-10T04:08:52;98792.06;;;6.99;100.00
23170;BME280;11753;43.144;24.714;2022-12-10T04:09:53;98794.34;;;6.94;100.00
23170;BME280;11753;43.144;24.714;2022-12-10T04:10:54;98799.25;;;6.97;100.00
23170;BME280;11753;43.144;24.714;2022-12-10T04:11:55;98785.50;;;6.95;100.00
23170;BME280;11753;43.144;24.714;2022-12-10T04:12:57;98790.38;;;6.90;100.00
23170;BME280;11753;43.144;24.714;2022-12-10T04:14:16;98786.56;;;7.02;100.00
23170;BME280;11753;43.144;24.714;2022-12-10T04:15:37;98794.84;;;6.98;100.00
23170;BME280;11753;43.144;24.714;2022-12-10T04:16:57;98784.53;;;6.96;100.00
23170;BME280;11753;43.144;24.714;2022-12-10T04:17:58;98795.38;;;7.01;100.00
23170;BME280;11753;43.144;24.714;2022-12-10T04:19:05;98797.31;;;6.99;100.00
23170;BME280;11753;43.144;24.714;2022-12-10T04:20:07;98798.00;;;7.01;100.00
23170;BME280;11753;43.144;24.714;2022-12-10T04:21:28;98792.38;;;6.96;100.00
23170;BME280;11753;43.144;24.714;2022-12-10T04:22:47;98795.00;;;6.96;100.00
23170;BME280;11753;43.144;24.714;2022-12-10T04:24:08;98790.75;;;6.95;100.00
23170;BME280;11753;43.144;24.714;2022-12-10T04:25:27;98794.63;;;6.91;100.00
23170;BME280;11753;43.144;24.714;2022-12-10T04:26:47;98781.25;;;6.94;100.00
23170;BME280;11753;43.144;24.714;2022-12-10T04:27:54;98783.88;;;6.94;100.00
23170;BME280;11753;43.144;24.714;2022-12-10T04:28:55;98781.09;;;6.96;100.00
23170;BME280;11753;43.144;24.714;2022-12-10T04:29:56;98780.28;;;6.95;100.00
23170;BME280;11753;43.144;24.714;2022-12-10T04:30:56;98785.78;;;6.92;100.00
23170;BME280;11753;43.144;24.714;2022-12-10T04:31:57;98783.09;;;6.84;100.00
23170;BME280;11753;43.144;24.714;2022-12-10T04:32:58;98781.69;;;6.89;100.00
23170;BME280;11753;43.144;24.714;2022-12-10T04:33:59;98785.19;;;6.98;100.00
23170;BME280;11753;43.144;24.714;2022-12-10T04:34:59;98788.50;;;7.00;100.00
23170;BME280;11753;43.144;24.714;2022-12-10T04:36:00;98786.56;;;7.02;100.00
23170;BME280;11753;43.144;24.714;2022-12-10T04:37:01;98787.22;;;7.04;100.00
23170;BME280;11753;43.144;24.714;2022-12-10T04:38:02;98788.84;;;7.05;100.00
23170;BME280;11753;43.144;24.714;2022-12-10T04:39:05;98788.84;;;7.05;100.00
23170;BME280;11753;43.144;24.714;2022-12-10T04:40:06;98798.13;;;7.17;100.00
23170;BME280;11753;43.144;24.714;2022-12-10T04:41:07;98794.38;;;7.20;100.00
23170;BME280;11753;43.144;24.714;2022-12-10T04:42:16;98796.53;;;7.25;100.00
23170;BME280;11753;43.144;24.714;2022-12-10T04:43:17;98797.00;;;7.20;100.00
23170;BME280;11753;43.144;24.714;2022-12-10T04:44:18;98796.84;;;7.22;100.00
23170;BME280;11753;43.144;24.714;2022-12-10T04:45:19;98789.66;;;7.24;100.00
23170;BME280;11753;43.144;24.714;2022-12-10T04:46:19;98795.41;;;7.27;100.00
23170;BME280;11753;43.144;24.714;2022-12-10T04:47:20;98788.09;;;7.31;100.00
23170;BME280;11753;43.144;24.714;2022-12-10T04:48:21;98782.53;;;7.34;100.00
23170;BME280;11753;43.144;24.714;2022-12-10T04:49:22;98793.97;;;7.33;100.00
23170;BME280;11753;43.144;24.714;2022-12-10T04:50:23;98781.56;;;7.35;100.00
23170;BME280;11753;43.144;24.714;2022-12-10T04:51:24;98790.19;;;7.53;100.00
23170;BME280;11753;43.144;24.714;2022-12-10T04:52:25;98796.31;;;7.36;100.00
23170;BME280;11753;43.144;24.714;2022-12-10T04:53:25;98792.34;;;7.32;100.00
23170;BME280;11753;43.144;24.714;2022-12-10T04:54:26;98792.34;;;7.32;100.00
23170;BME280;11753;43.144;24.714;2022-12-10T04:55:28;98790.09;;;7.37;100.00
23170;BME280;11753;43.144;24.714;2022-12-10T04:56:29;98795.34;;;7.37;100.00
23170;BME280;11753;43.144;24.714;2022-12-10T04:57:30;98792.84;;;7.35;100.00
23170;BME280;11753;43.144;24.714;2022-12-10T04:58:32;98798.25;;;7.34;100.00
23170;BME280;11753;43.144;24.714;2022-12-10T04:59:33;98793.53;;;7.37;100.00
23170;BME280;11753;43.144;24.714;2022-12-10T05:00:35;98790.69;;;7.31;100.00
23170;BME280;11753;43.144;24.714;2022-12-10T05:01:36;98792.88;;;7.17;100.00
23170;BME280;11753;43.144;24.714;2022-12-10T05:02:37;98792.84;;;7.35;100.00
23170;BME280;11753;43.144;24.714;2022-12-10T05:03:38;98791.22;;;7.34;100.00
23170;BME280;11753;43.144;24.714;2022-12-10T05:04:38;98794.31;;;7.30;100.00
23170;BME280;11753;43.144;24.714;2022-12-10T05:05:39;98802.91;;;7.22;100.00
23170;BME280;11753;43.144;24.714;2022-12-10T05:06:40;98806.28;;;7.14;100.00
23170;BME280;11753;43.144;24.714;2022-12-10T05:07:40;98796.09;;;7.11;100.00
23170;BME280;11753;43.144;24.714;2022-12-10T05:08:41;98793.50;;;7.11;100.00
23170;BME280;11753;43.144;24.714;2022-12-10T05:09:42;98792.66;;;7.11;100.00
23170;BME280;11753;43.144;24.714;2022-12-10T05:10:43;98788.91;;;7.13;100.00
23170;BME280;11753;43.144;24.714;2022-12-10T05:11:43;98787.50;;;7.19;100.00
23170;BME280;11753;43.144;24.714;2022-12-10T05:12:44;98786.69;;;7.18;100.00
23170;BME280;11753;43.144;24.714;2022-12-10T05:13:46;98788.47;;;7.18;100.00
23170;BME280;11753;43.144;24.714;2022-12-10T05:14:47;98781.44;;;7.18;100.00
23170;BME280;11753;43.144;24.714;2022-12-10T05:15:47;98795.19;;;7.21;100.00
23170;BME280;11753;43.144;24.714;2022-12-10T05:16:51;98786.69;;;7.18;100.00
23170;BME280;11753;43.144;24.714;2022-12-10T05:17:52;98792.72;;;7.19;100.00
23170;BME280;11753;43.144;24.714;2022-12-10T05:18:53;98789.50;;;7.25;100.00
23170;BME280;11753;43.144;24.714;2022-12-10T05:19:54;98794.59;;;7.27;100.00
23170;BME280;11753;43.144;24.714;2022-12-10T05:20:57;98790.50;;;7.24;100.00
23170;BME280;11753;43.144;24.714;2022-12-10T05:21:58;98791.63;;;7.22;100.00
23170;BME280;11753;43.144;24.714;2022-12-10T05:23:17;98785.63;;;7.11;100.00
23170;BME280;11753;43.144;24.714;2022-12-10T05:24:30;98785.84;;;7.18;100.00
23170;BME280;11753;43.144;24.714;2022-12-10T05:25:30;98786.00;;;7.16;100.00
23170;BME280;11753;43.144;24.714;2022-12-10T05:26:31;98796.09;;;7.11;100.00
23170;BME280;11753;43.144;24.714;2022-12-10T05:27:32;98788.31;;;7.20;100.00
23170;BME280;11753;43.144;24.714;2022-12-10T05:28:36;98795.50;;;7.17;100.00
23170;BME280;11753;43.144;24.714;2022-12-10T05:29:37;98788.09;;;7.13;100.00
23170;BME280;11753;43.144;24.714;2022-12-10T05:30:38;98780.31;;;7.21;100.00
23170;BME280;11753;43.144;24.714;2022-12-10T05:31:38;98792.50;;;7.12;100.00
23170;BME280;11753;43.144;24.714;2022-12-10T05:32:39;98785.13;;;7.08;100.00
23170;BME280;11753;43.144;24.714;2022-12-10T05:33:42;98785.72;;;7.02;100.00
23170;BME280;11753;43.144;24.714;2022-12-10T05:34:43;98781.09;;;6.96;100.00
23170;BME280;11753;43.144;24.714;2022-12-10T05:35:50;98787.16;;;6.96;100.00
23170;BME280;11753;43.144;24.714;2022-12-10T05:36:51;98781.91;;;6.96;100.00
23170;BME280;11753;43.144;24.714;2022-12-10T05:37:51;98784.84;;;6.93;100.00
23170;BME280;11753;43.144;24.714;2022-12-10T05:38:52;98785.50;;;6.95;100.00
23170;BME280;11753;43.144;24.714;2022-12-10T05:39:53;98780.28;;;6.95;100.00
23170;BME280;11753;43.144;24.714;2022-12-10T05:40:53;98782.06;;;6.95;100.00
23170;BME280;11753;43.144;24.714;2022-12-10T05:41:54;98781.53;;;6.91;100.00
23170;BME280;11753;43.144;24.714;2022-12-10T05:42:55;98781.91;;;6.96;100.00
23170;BME280;11753;43.144;24.714;2022-12-10T05:43:57;98783.28;;;7.00;100.00
23170;BME280;11753;43.144;24.714;2022-12-10T05:44:57;98776.91;;;7.03;100.00
23170;BME280;11753;43.144;24.714;2022-12-10T05:46:01;98773.84;;;7.07;100.00
23170;BME280;11753;43.144;24.714;2022-12-10T05:47:02;98767.63;;;7.08;100.00